sensor_id;sensor_type;location;lat;lon;timestamp;temperature;humidity
18882;DHT22;9573;50.948;11.600;2023-05-27T00:00:47;8.70;99.90
18882;DHT22;9573;50.948;11.600;2023-05-27T00:03:14;8.70;99.90
18882;DHT22;9573;50.948;11.600;2023-05-27T00:05:42;8.70;99.90
18882;DHT22;9573;50.948;11.600;2023-05-27T00:08:10;8.60;99.90
18882;DHT22;9573;50.948;11.600;2023-05-27T00:10:37;8.60;99.90
18882;DHT22;9573;50.948;11.600;2023-05-27T00:13:05;8.50;99.90
18882;DHT22;9573;50.948;11.600;2023-05-27T00:15:32;8.60;99.90
18882;DHT22;9573;50.948;11.600;2023-05-27T00:17:59;8.60;99.90
18882;DHT22;9573;50.948;11.600;2023-05-27T00:20:27;8.50;99.90
18882;DHT22;9573;50.948;11.600;2023-05-27T00:22:56;8.50;99.90
18882;DHT22;9573;50.948;11.600;2023-05-27T00:25:26;8.40;99.90
18882;DHT22;9573;50.948;11.600;2023-05-27T00:27:54;8.30;99.90
18882;DHT22;9573;50.948;11.600;2023-05-27T00:30:22;8.30;99.90
18882;DHT22;9573;50.948;11.600;2023-05-27T00:32:49;8.20;99.90
18882;DHT22;9573;50.948;11.600;2023-05-27T00:35:16;8.20;99.90
18882;DHT22;9573;50.948;11.600;2023-05-27T00:37:43;8.20;99.90
18882;DHT22;9573;50.948;11.600;2023-05-27T00:40:11;8.10;99.90
18882;DHT22;9573;50.948;11.600;2023-05-27T00:42:43;8.10;99.90
18882;DHT22;9573;50.948;11.600;2023-05-27T00:45:11;8.00;99.90
18882;DHT22;9573;50.948;11.600;2023-05-27T00:47:39;8.00;99.90
18882;DHT22;9573;50.948;11.600;2023-05-27T00:50:07;8.00;99.90
18882;DHT22;9573;50.948;11.600;2023-05-27T00:52:34;7.90;99.90
18882;DHT22;9573;50.948;11.600;2023-05-27T00:55:01;7.90;99.90
18882;DHT22;9573;50.948;11.600;2023-05-27T00:57:28;7.90;99.90
18882;DHT22;9573;50.948;11.600;2023-05-27T00:59:57;7.80;99.90
18882;DHT22;9573;50.948;11.600;2023-05-27T01:02:24;7.80;99.90
18882;DHT22;9573;50.948;11.600;2023-05-27T01:04:51;7.80;99.90
18882;DHT22;9573;50.948;11.600;2023-05-27T01:07:24;6.70;99.90
18882;DHT22;9573;50.948;11.600;2023-05-27T01:10:00;7.80;99.90
18882;DHT22;9573;50.948;11.600;2023-05-27T01:12:41;7.70;99.90
18882;DHT22;9573;50.948;11.600;2023-05-27T01:15:13;7.70;99.90
18882;DHT22;9573;50.948;11.600;2023-05-27T01:17:41;7.60;99.90
18882;DHT22;9573;50.948;11.600;2023-05-27T01:20:10;7.60;99.90
18882;DHT22;9573;50.948;11.600;2023-05-27T01:22:40;7.60;99.90
18882;DHT22;9573;50.948;11.600;2023-05-27T01:25:09;7.60;99.90
18882;DHT22;9573;50.948;11.600;2023-05-27T01:27:36;7.60;99.90
18882;DHT22;9573;50.948;11.600;2023-05-27T01:30:06;7.50;99.90
18882;DHT22;9573;50.948;11.600;2023-05-27T01:32:41;7.50;99.90
18882;DHT22;9573;50.948;11.600;2023-05-27T01:35:16;7.50;99.90
18882;DHT22;9573;50.948;11.600;2023-05-27T01:37:48;7.40;99.90
18882;DHT22;9573;50.948;11.600;2023-05-27T01:40:18;7.40;99.90
18882;DHT22;9573;50.948;11.600;2023-05-27T01:42:46;7.30;99.90
18882;DHT22;9573;50.948;11.600;2023-05-27T01:45:14;7.40;99.90
18882;DHT22;9573;50.948;11.600;2023-05-27T01:47:42;7.20;99.90
18882;DHT22;9573;50.948;11.600;2023-05-27T01:50:10;7.20;99.90
18882;DHT22;9573;50.948;11.600;2023-05-27T01:52:37;7.10;99.90
18882;DHT22;9573;50.948;11.600;2023-05-27T01:55:06;7.10;99.90
18882;DHT22;9573;50.948;11.600;2023-05-27T01:57:34;7.10;99.90
18882;DHT22;9573;50.948;11.600;2023-05-27T02:00:01;7.00;99.90
18882;DHT22;9573;50.948;11.600;2023-05-27T02:02:30;7.00;99.90
18882;DHT22;9573;50.948;11.600;2023-05-27T02:04:57;7.00;99.90
18882;DHT22;9573;50.948;11.600;2023-05-27T02:07:24;7.00;99.90
18882;DHT22;9573;50.948;11.600;2023-05-27T02:09:52;7.00;99.90
18882;DHT22;9573;50.948;11.600;2023-05-27T02:12:20;7.00;99.90
18882;DHT22;9573;50.948;11.600;2023-05-27T02:14:47;7.00;99.90
18882;DHT22;9573;50.948;11.600;2023-05-27T02:17:15;7.00;99.90
18882;DHT22;9573;50.948;11.600;2023-05-27T02:19:42;6.90;99.90
18882;DHT22;9573;50.948;11.600;2023-05-27T02:22:09;6.90;99.90
18882;DHT22;9573;50.948;11.600;2023-05-27T02:24:36;6.90;99.90
18882;DHT22;9573;50.948;11.600;2023-05-27T02:27:04;6.90;99.90
18882;DHT22;9573;50.948;11.600;2023-05-27T02:29:33;6.80;99.90
18882;DHT22;9573;50.948;11.600;2023-05-27T02:32:00;6.80;99.90
18882;DHT22;9573;50.948;11.600;2023-05-27T02:34:27;6.70;99.90
18882;DHT22;9573;50.948;11.600;2023-05-27T02:36:54;6.70;99.90
18882;DHT22;9573;50.948;11.600;2023-05-27T02:39:22;6.70;99.90
18882;DHT22;9573;50.948;11.600;2023-05-27T02:41:49;6.60;99.90
18882;DHT22;9573;50.948;11.600;2023-05-27T02:44:16;6.60;99.90
18882;DHT22;9573;50.948;11.600;2023-05-27T02:46:44;5.40;99.90
18882;DHT22;9573;50.948;11.600;2023-05-27T02:49:11;6.50;99.90
18882;DHT22;9573;50.948;11.600;2023-05-27T02:51:38;6.50;99.90
18882;DHT22;9573;50.948;11.600;2023-05-27T02:54:05;6.40;99.90
18882;DHT22;9573;50.948;11.600;2023-05-27T02:56:32;6.50;99.90
18882;DHT22;9573;50.948;11.600;2023-05-27T02:59:00;6.40;99.90
18882;DHT22;9573;50.948;11.600;2023-05-27T03:01:27;6.40;99.90
18882;DHT22;9573;50.948;11.600;2023-05-27T03:03:55;6.30;99.90
18882;DHT22;9573;50.948;11.600;2023-05-27T03:06:22;6.40;99.90
18882;DHT22;9573;50.948;11.600;2023-05-27T03:08:49;6.40;99.90
18882;DHT22;9573;50.948;11.600;2023-05-27T03:11:16;6.40;99.90
18882;DHT22;9573;50.948;11.600;2023-05-27T03:13:43;6.30;99.90
18882;DHT22;9573;50.948;11.600;2023-05-27T03:16:10;6.30;99.90
18882;DHT22;9573;50.948;11.600;2023-05-27T03:18:38;6.40;99.90
18882;DHT22;9573;50.948;11.600;2023-05-27T03:21:06;6.30;99.90
18882;DHT22;9573;50.948;11.600;2023-05-27T03:23:34;6.40;99.90
18882;DHT22;9573;50.948;11.600;2023-05-27T03:26:01;6.40;99.90
18882;DHT22;9573;50.948;11.600;2023-05-27T03:28:28;6.40;99.90
18882;DHT22;9573;50.948;11.600;2023-05-27T03:30:55;6.50;99.90
18882;DHT22;9573;50.948;11.600;2023-05-27T03:33:22;6.50;99.90
18882;DHT22;9573;50.948;11.600;2023-05-27T03:35:49;6.60;99.90
18882;DHT22;9573;50.948;11.600;2023-05-27T03:38:18;6.90;99.90
18882;DHT22;9573;50.948;11.600;2023-05-27T03:40:45;7.20;99.90
18882;DHT22;9573;50.948;11.600;2023-05-27T03:43:12;7.60;99.90
18882;DHT22;9573;50.948;11.600;2023-05-27T03:45:39;7.90;99.90
18882;DHT22;9573;50.948;11.600;2023-05-27T03:48:06;7.90;99.90
18882;DHT22;9573;50.948;11.600;2023-05-27T03:50:34;7.80;99.90
18882;DHT22;9573;50.948;11.600;2023-05-27T03:53:01;7.80;99.90
18882;DHT22;9573;50.948;11.600;2023-05-27T03:55:29;7.80;99.90
18882;DHT22;9573;50.948;11.600;2023-05-27T03:57:56;7.90;99.90
18882;DHT22;9573;50.948;11.600;2023-05-27T04:00:24;8.00;99.90
18882;DHT22;9573;50.948;11.600;2023-05-27T04:02:52;8.40;99.90
18882;DHT22;9573;50.948;11.600;2023-05-27T04:05:19;9.10;99.90
18882;DHT22;9573;50.948;11.600;2023-05-27T04:07:46;10.10;99.90
18882;DHT22;9573;50.948;11.600;2023-05-27T04:10:13;11.20;99.90
18882;DHT22;9573;50.948;11.600;2023-05-27T04:12:41;12.20;99.90
18882;DHT22;9573;50.948;11.600;2023-05-27T04:15:09;13.00;99.90
18882;DHT22;9573;50.948;11.600;2023-05-27T04:17:36;13.70;99.90
18882;DHT22;9573;50.948;11.600;2023-05-27T04:20:05;14.50;99.90
18882;DHT22;9573;50.948;11.600;2023-05-27T04:22:39;15.40;99.90
18882;DHT22;9573;50.948;11.600;2023-05-27T04:25:07;15.60;99.90
18882;DHT22;9573;50.948;11.600;2023-05-27T04:27:34;15.60;99.90
18882;DHT22;9573;50.948;11.600;2023-05-27T04:30:04;16.40;99.90
18882;DHT22;9573;50.948;11.600;2023-05-27T04:32:32;17.30;99.90
18882;DHT22;9573;50.948;11.600;2023-05-27T04:35:04;18.40;99.90
18882;DHT22;9573;50.948;11.600;2023-05-27T04:37:33;18.90;99.90
18882;DHT22;9573;50.948;11.600;2023-05-27T04:40:02;19.40;99.90
18882;DHT22;9573;50.948;11.600;2023-05-27T04:42:31;19.70;99.90
18882;DHT22;9573;50.948;11.600;2023-05-27T04:45:03;20.10;99.90
18882;DHT22;9573;50.948;11.600;2023-05-27T04:47:31;20.50;99.90
18882;DHT22;9573;50.948;11.600;2023-05-27T04:49:58;21.10;99.90
18882;DHT22;9573;50.948;11.600;2023-05-27T04:52:26;21.80;97.10
18882;DHT22;9573;50.948;11.600;2023-05-27T04:54:53;22.50;94.30
18882;DHT22;9573;50.948;11.600;2023-05-27T04:57:21;22.70;92.50
18882;DHT22;9573;50.948;11.600;2023-05-27T04:59:48;23.00;91.20
18882;DHT22;9573;50.948;11.600;2023-05-27T05:02:45;23.50;88.80
18882;DHT22;9573;50.948;11.600;2023-05-27T05:05:13;23.80;86.10
18882;DHT22;9573;50.948;11.600;2023-05-27T05:07:41;24.10;83.80
18882;DHT22;9573;50.948;11.600;2023-05-27T05:10:09;24.70;81.20
18882;DHT22;9573;50.948;11.600;2023-05-27T05:12:37;25.10;79.50
18882;DHT22;9573;50.948;11.600;2023-05-27T05:15:07;25.60;77.10
18882;DHT22;9573;50.948;11.600;2023-05-27T05:17:34;25.70;75.90
18882;DHT22;9573;50.948;11.600;2023-05-27T05:20:03;26.00;74.10
18882;DHT22;9573;50.948;11.600;2023-05-27T05:22:31;26.60;71.80
18882;DHT22;9573;50.948;11.600;2023-05-27T05:24:58;27.00;69.90
18882;DHT22;9573;50.948;11.600;2023-05-27T05:27:27;27.50;67.70
18882;DHT22;9573;50.948;11.600;2023-05-27T05:29:54;27.80;65.90
18882;DHT22;9573;50.948;11.600;2023-05-27T05:32:21;27.90;65.30
18882;DHT22;9573;50.948;11.600;2023-05-27T05:34:48;28.00;64.80
18882;DHT22;9573;50.948;11.600;2023-05-27T05:37:16;28.20;64.70
18882;DHT22;9573;50.948;11.600;2023-05-27T05:39:43;28.30;64.00
18882;DHT22;9573;50.948;11.600;2023-05-27T05:42:11;28.90;62.80
18882;DHT22;9573;50.948;11.600;2023-05-27T05:44:38;29.60;60.70
18882;DHT22;9573;50.948;11.600;2023-05-27T05:47:05;30.20;59.30
18882;DHT22;9573;50.948;11.600;2023-05-27T05:49:32;30.40;58.40
18882;DHT22;9573;50.948;11.600;2023-05-27T05:51:59;30.40;58.60
18882;DHT22;9573;50.948;11.600;2023-05-27T05:54:28;30.90;57.50
18882;DHT22;9573;50.948;11.600;2023-05-27T05:56:55;30.90;57.40
18882;DHT22;9573;50.948;11.600;2023-05-27T05:59:22;31.50;56.00
18882;DHT22;9573;50.948;11.600;2023-05-27T06:01:49;31.90;55.00
18882;DHT22;9573;50.948;11.600;2023-05-27T06:04:16;32.20;54.90
18882;DHT22;9573;50.948;11.600;2023-05-27T06:06:43;32.30;54.40
18882;DHT22;9573;50.948;11.600;2023-05-27T06:09:11;32.50;53.70
18882;DHT22;9573;50.948;11.600;2023-05-27T06:11:39;32.50;53.80
18882;DHT22;9573;50.948;11.600;2023-05-27T06:14:06;32.90;53.60
18882;DHT22;9573;50.948;11.600;2023-05-27T06:16:33;33.50;53.00
18882;DHT22;9573;50.948;11.600;2023-05-27T06:19:02;33.80;52.00
18882;DHT22;9573;50.948;11.600;2023-05-27T06:21:29;34.10;51.70
18882;DHT22;9573;50.948;11.600;2023-05-27T06:23:58;34.50;50.50
18882;DHT22;9573;50.948;11.600;2023-05-27T06:26:26;35.00;49.80
18882;DHT22;9573;50.948;11.600;2023-05-27T06:28:55;35.20;48.90
18882;DHT22;9573;50.948;11.600;2023-05-27T06:31:22;35.10;48.60
18882;DHT22;9573;50.948;11.600;2023-05-27T06:33:49;34.90;48.80
18882;DHT22;9573;50.948;11.600;2023-05-27T06:36:17;35.20;48.60
18882;DHT22;9573;50.948;11.600;2023-05-27T06:38:44;35.40;47.90
18882;DHT22;9573;50.948;11.600;2023-05-27T06:41:11;35.50;47.90
18882;DHT22;9573;50.948;11.600;2023-05-27T06:43:38;36.30;47.60
18882;DHT22;9573;50.948;11.600;2023-05-27T06:46:07;36.50;46.70
18882;DHT22;9573;50.948;11.600;2023-05-27T06:48:34;36.60;46.30
18882;DHT22;9573;50.948;11.600;2023-05-27T06:51:01;36.70;46.40
18882;DHT22;9573;50.948;11.600;2023-05-27T06:53:28;36.90;46.40
18882;DHT22;9573;50.948;11.600;2023-05-27T06:55:56;37.60;45.90
18882;DHT22;9573;50.948;11.600;2023-05-27T06:58:23;37.10;46.00
18882;DHT22;9573;50.948;11.600;2023-05-27T07:00:50;37.40;45.80
18882;DHT22;9573;50.948;11.600;2023-05-27T07:03:18;37.60;45.00
18882;DHT22;9573;50.948;11.600;2023-05-27T07:05:45;37.60;45.00
18882;DHT22;9573;50.948;11.600;2023-05-27T07:08:13;37.90;44.50
18882;DHT22;9573;50.948;11.600;2023-05-27T07:10:41;38.00;44.40
18882;DHT22;9573;50.948;11.600;2023-05-27T07:13:08;38.20;44.30
18882;DHT22;9573;50.948;11.600;2023-05-27T07:15:36;38.00;44.00
18882;DHT22;9573;50.948;11.600;2023-05-27T07:18:03;37.90;43.70
18882;DHT22;9573;50.948;11.600;2023-05-27T07:20:32;37.50;44.20
18882;DHT22;9573;50.948;11.600;2023-05-27T07:23:00;36.80;43.90
18882;DHT22;9573;50.948;11.600;2023-05-27T07:25:27;36.90;44.60
18882;DHT22;9573;50.948;11.600;2023-05-27T07:27:54;37.20;44.40
18882;DHT22;9573;50.948;11.600;2023-05-27T07:30:21;37.30;44.60
18882;DHT22;9573;50.948;11.600;2023-05-27T07:32:48;37.50;43.50
18882;DHT22;9573;50.948;11.600;2023-05-27T07:35:16;37.40;43.80
18882;DHT22;9573;50.948;11.600;2023-05-27T07:37:44;37.50;43.70
18882;DHT22;9573;50.948;11.600;2023-05-27T07:40:11;37.90;43.50
18882;DHT22;9573;50.948;11.600;2023-05-27T07:42:39;37.30;43.60
18882;DHT22;9573;50.948;11.600;2023-05-27T07:45:07;37.50;44.00
18882;DHT22;9573;50.948;11.600;2023-05-27T07:47:35;37.50;43.90
18882;DHT22;9573;50.948;11.600;2023-05-27T07:50:02;38.10;42.80
18882;DHT22;9573;50.948;11.600;2023-05-27T07:52:30;38.00;43.00
18882;DHT22;9573;50.948;11.600;2023-05-27T07:54:58;35.10;44.40
18882;DHT22;9573;50.948;11.600;2023-05-27T07:57:25;33.60;46.40
18882;DHT22;9573;50.948;11.600;2023-05-27T07:59:52;32.60;48.70
18882;DHT22;9573;50.948;11.600;2023-05-27T08:02:19;34.00;47.40
18882;DHT22;9573;50.948;11.600;2023-05-27T08:04:48;36.00;46.00
18882;DHT22;9573;50.948;11.600;2023-05-27T08:07:15;36.80;44.00
18882;DHT22;9573;50.948;11.600;2023-05-27T08:09:45;36.70;44.30
18882;DHT22;9573;50.948;11.600;2023-05-27T08:12:13;37.40;44.20
18882;DHT22;9573;50.948;11.600;2023-05-27T08:14:40;38.10;43.10
18882;DHT22;9573;50.948;11.600;2023-05-27T08:17:07;38.10;41.30
18882;DHT22;9573;50.948;11.600;2023-05-27T08:19:34;37.50;41.10
18882;DHT22;9573;50.948;11.600;2023-05-27T08:22:04;38.10;41.30
18882;DHT22;9573;50.948;11.600;2023-05-27T08:24:34;38.20;41.10
18882;DHT22;9573;50.948;11.600;2023-05-27T08:27:01;37.50;41.40
18882;DHT22;9573;50.948;11.600;2023-05-27T08:29:32;37.20;41.20
18882;DHT22;9573;50.948;11.600;2023-05-27T08:32:00;36.90;41.30
18882;DHT22;9573;50.948;11.600;2023-05-27T08:34:30;36.80;42.00
18882;DHT22;9573;50.948;11.600;2023-05-27T08:36:57;36.90;41.20
18882;DHT22;9573;50.948;11.600;2023-05-27T08:39:25;36.10;41.40
18882;DHT22;9573;50.948;11.600;2023-05-27T08:41:53;35.30;42.50
18882;DHT22;9573;50.948;11.600;2023-05-27T08:44:22;35.30;43.10
18882;DHT22;9573;50.948;11.600;2023-05-27T08:46:51;35.80;42.50
18882;DHT22;9573;50.948;11.600;2023-05-27T08:49:19;35.80;42.60
18882;DHT22;9573;50.948;11.600;2023-05-27T08:51:49;36.40;42.60
18882;DHT22;9573;50.948;11.600;2023-05-27T08:54:17;36.30;41.90
18882;DHT22;9573;50.948;11.600;2023-05-27T08:56:45;35.20;42.70
18882;DHT22;9573;50.948;11.600;2023-05-27T08:59:14;35.30;43.40
18882;DHT22;9573;50.948;11.600;2023-05-27T09:01:42;35.30;43.30
18882;DHT22;9573;50.948;11.600;2023-05-27T09:04:11;35.20;43.00
18882;DHT22;9573;50.948;11.600;2023-05-27T09:06:38;35.20;43.20
18882;DHT22;9573;50.948;11.600;2023-05-27T09:09:06;35.60;43.40
18882;DHT22;9573;50.948;11.600;2023-05-27T09:11:38;34.70;43.50
18882;DHT22;9573;50.948;11.600;2023-05-27T09:14:06;33.50;45.00
18882;DHT22;9573;50.948;11.600;2023-05-27T09:16:33;33.30;45.40
18882;DHT22;9573;50.948;11.600;2023-05-27T09:19:01;33.70;45.30
18882;DHT22;9573;50.948;11.600;2023-05-27T09:21:30;34.20;45.00
18882;DHT22;9573;50.948;11.600;2023-05-27T09:23:57;33.40;45.20
18882;DHT22;9573;50.948;11.600;2023-05-27T09:26:24;33.60;45.50
18882;DHT22;9573;50.948;11.600;2023-05-27T09:28:53;34.00;45.00
18882;DHT22;9573;50.948;11.600;2023-05-27T09:31:23;34.50;45.10
18882;DHT22;9573;50.948;11.600;2023-05-27T09:33:50;33.80;44.80
18882;DHT22;9573;50.948;11.600;2023-05-27T09:36:21;33.70;45.00
18882;DHT22;9573;50.948;11.600;2023-05-27T09:38:50;34.20;44.70
18882;DHT22;9573;50.948;11.600;2023-05-27T09:41:23;34.20;44.30
18882;DHT22;9573;50.948;11.600;2023-05-27T09:43:55;34.30;45.10
18882;DHT22;9573;50.948;11.600;2023-05-27T09:46:23;33.80;44.70
18882;DHT22;9573;50.948;11.600;2023-05-27T09:48:51;33.60;44.10
18882;DHT22;9573;50.948;11.600;2023-05-27T09:51:19;33.20;44.40
18882;DHT22;9573;50.948;11.600;2023-05-27T09:53:47;32.70;45.90
18882;DHT22;9573;50.948;11.600;2023-05-27T09:56:17;32.80;46.30
18882;DHT22;9573;50.948;11.600;2023-05-27T09:58:45;32.80;46.50
18882;DHT22;9573;50.948;11.600;2023-05-27T10:01:12;32.80;46.60
18882;DHT22;9573;50.948;11.600;2023-05-27T10:03:40;32.60;46.50
18882;DHT22;9573;50.948;11.600;2023-05-27T10:06:11;32.20;47.40
18882;DHT22;9573;50.948;11.600;2023-05-27T10:08:41;32.00;48.20
18882;DHT22;9573;50.948;11.600;2023-05-27T10:11:11;32.20;47.30
18882;DHT22;9573;50.948;11.600;2023-05-27T10:13:39;32.40;47.30
18882;DHT22;9573;50.948;11.600;2023-05-27T10:16:06;32.70;47.40
18882;DHT22;9573;50.948;11.600;2023-05-27T10:18:33;32.80;46.60
18882;DHT22;9573;50.948;11.600;2023-05-27T10:21:08;32.60;47.00
18882;DHT22;9573;50.948;11.600;2023-05-27T10:23:35;31.70;46.80
18882;DHT22;9573;50.948;11.600;2023-05-27T10:26:06;31.30;48.40
18882;DHT22;9573;50.948;11.600;2023-05-27T10:28:37;31.30;48.70
18882;DHT22;9573;50.948;11.600;2023-05-27T10:31:06;31.10;48.80
18882;DHT22;9573;50.948;11.600;2023-05-27T10:33:35;31.10;49.20
18882;DHT22;9573;50.948;11.600;2023-05-27T10:36:06;31.30;48.40
18882;DHT22;9573;50.948;11.600;2023-05-27T10:38:35;31.20;48.60
18882;DHT22;9573;50.948;11.600;2023-05-27T10:41:03;30.70;49.10
18882;DHT22;9573;50.948;11.600;2023-05-27T10:43:35;30.00;49.70
18882;DHT22;9573;50.948;11.600;2023-05-27T10:46:06;29.90;50.80
18882;DHT22;9573;50.948;11.600;2023-05-27T10:48:34;30.10;50.80
18882;DHT22;9573;50.948;11.600;2023-05-27T10:51:03;30.30;50.00
18882;DHT22;9573;50.948;11.600;2023-05-27T10:53:30;30.40;50.30
18882;DHT22;9573;50.948;11.600;2023-05-27T10:55:58;30.40;49.00
18882;DHT22;9573;50.948;11.600;2023-05-27T10:58:26;29.80;50.10
18882;DHT22;9573;50.948;11.600;2023-05-27T11:00:55;29.70;50.50
18882;DHT22;9573;50.948;11.600;2023-05-27T11:03:24;29.50;50.60
18882;DHT22;9573;50.948;11.600;2023-05-27T11:06:00;29.00;51.10
18882;DHT22;9573;50.948;11.600;2023-05-27T11:08:28;28.40;52.40
18882;DHT22;9573;50.948;11.600;2023-05-27T11:11:00;28.30;53.00
18882;DHT22;9573;50.948;11.600;2023-05-27T11:13:32;28.10;52.80
18882;DHT22;9573;50.948;11.600;2023-05-27T11:16:03;28.30;52.90
18882;DHT22;9573;50.948;11.600;2023-05-27T11:18:35;28.60;52.50
18882;DHT22;9573;50.948;11.600;2023-05-27T11:21:06;29.00;51.60
18882;DHT22;9573;50.948;11.600;2023-05-27T11:23:35;29.00;51.50
18882;DHT22;9573;50.948;11.600;2023-05-27T11:26:10;28.90;51.30
18882;DHT22;9573;50.948;11.600;2023-05-27T11:28:45;28.90;52.00
18882;DHT22;9573;50.948;11.600;2023-05-27T11:31:14;28.60;51.50
18882;DHT22;9573;50.948;11.600;2023-05-27T11:33:42;28.30;52.90
18882;DHT22;9573;50.948;11.600;2023-05-27T11:36:13;28.50;52.40
18882;DHT22;9573;50.948;11.600;2023-05-27T11:38:52;28.50;52.20
18882;DHT22;9573;50.948;11.600;2023-05-27T11:41:20;28.40;52.20
18882;DHT22;9573;50.948;11.600;2023-05-27T11:43:54;27.80;53.30
18882;DHT22;9573;50.948;11.600;2023-05-27T11:46:24;27.50;54.30
18882;DHT22;9573;50.948;11.600;2023-05-27T11:49:00;27.60;53.80
18882;DHT22;9573;50.948;11.600;2023-05-27T11:51:28;27.80;53.40
18882;DHT22;9573;50.948;11.600;2023-05-27T11:53:58;27.30;53.40
18882;DHT22;9573;50.948;11.600;2023-05-27T11:56:26;27.10;54.20
18882;DHT22;9573;50.948;11.600;2023-05-27T11:58:54;27.00;54.30
18882;DHT22;9573;50.948;11.600;2023-05-27T12:01:23;26.90;54.10
18882;DHT22;9573;50.948;11.600;2023-05-27T12:03:50;27.00;55.00
18882;DHT22;9573;50.948;11.600;2023-05-27T12:06:18;27.40;55.10
18882;DHT22;9573;50.948;11.600;2023-05-27T12:08:45;27.20;54.50
18882;DHT22;9573;50.948;11.600;2023-05-27T12:11:12;27.20;54.50
18882;DHT22;9573;50.948;11.600;2023-05-27T12:13:39;27.10;54.50
18882;DHT22;9573;50.948;11.600;2023-05-27T12:16:06;27.10;54.50
18882;DHT22;9573;50.948;11.600;2023-05-27T12:18:35;26.90;54.10
18882;DHT22;9573;50.948;11.600;2023-05-27T12:21:02;26.60;55.20
18882;DHT22;9573;50.948;11.600;2023-05-27T12:23:29;26.50;55.30
18882;DHT22;9573;50.948;11.600;2023-05-27T12:25:56;26.50;55.20
18882;DHT22;9573;50.948;11.600;2023-05-27T12:28:23;26.30;54.70
18882;DHT22;9573;50.948;11.600;2023-05-27T12:30:51;26.30;55.10
18882;DHT22;9573;50.948;11.600;2023-05-27T12:33:18;26.40;54.50
18882;DHT22;9573;50.948;11.600;2023-05-27T12:35:47;26.20;54.20
18882;DHT22;9573;50.948;11.600;2023-05-27T12:38:14;26.10;54.50
18882;DHT22;9573;50.948;11.600;2023-05-27T12:40:41;26.10;54.60
18882;DHT22;9573;50.948;11.600;2023-05-27T12:43:08;25.90;54.80
18882;DHT22;9573;50.948;11.600;2023-05-27T12:45:36;25.50;55.00
18882;DHT22;9573;50.948;11.600;2023-05-27T12:48:03;25.20;55.20
18882;DHT22;9573;50.948;11.600;2023-05-27T12:50:30;25.20;55.80
18882;DHT22;9573;50.948;11.600;2023-05-27T12:52:59;25.10;55.30
18882;DHT22;9573;50.948;11.600;2023-05-27T12:55:26;24.90;55.80
18882;DHT22;9573;50.948;11.600;2023-05-27T12:57:59;24.50;56.30
18882;DHT22;9573;50.948;11.600;2023-05-27T13:00:26;24.10;57.10
18882;DHT22;9573;50.948;11.600;2023-05-27T13:02:57;23.80;56.60
18882;DHT22;9573;50.948;11.600;2023-05-27T13:05:24;23.70;57.80
18882;DHT22;9573;50.948;11.600;2023-05-27T13:07:54;23.80;58.20
18882;DHT22;9573;50.948;11.600;2023-05-27T13:10:25;23.60;58.40
18882;DHT22;9573;50.948;11.600;2023-05-27T13:12:52;23.40;58.20
18882;DHT22;9573;50.948;11.600;2023-05-27T13:15:37;23.20;57.50
18882;DHT22;9573;50.948;11.600;2023-05-27T13:18:05;23.00;56.30
18882;DHT22;9573;50.948;11.600;2023-05-27T13:20:39;22.70;57.10
18882;DHT22;9573;50.948;11.600;2023-05-27T13:23:06;22.40;58.80
18882;DHT22;9573;50.948;11.600;2023-05-27T13:25:34;22.40;58.70
18882;DHT22;9573;50.948;11.600;2023-05-27T13:28:01;22.40;59.90
18882;DHT22;9573;50.948;11.600;2023-05-27T13:30:29;22.40;60.50
18882;DHT22;9573;50.948;11.600;2023-05-27T13:32:58;22.50;61.50
18882;DHT22;9573;50.948;11.600;2023-05-27T13:35:26;22.60;61.20
18882;DHT22;9573;50.948;11.600;2023-05-27T13:37:53;22.50;61.10
18882;DHT22;9573;50.948;11.600;2023-05-27T13:40:25;22.50;60.10
18882;DHT22;9573;50.948;11.600;2023-05-27T13:42:54;22.30;59.10
18882;DHT22;9573;50.948;11.600;2023-05-27T13:45:21;22.20;59.90
18882;DHT22;9573;50.948;11.600;2023-05-27T13:47:51;22.10;60.50
18882;DHT22;9573;50.948;11.600;2023-05-27T13:50:18;22.00;58.90
18882;DHT22;9573;50.948;11.600;2023-05-27T13:52:45;21.70;59.50
18882;DHT22;9573;50.948;11.600;2023-05-27T13:55:12;21.60;58.80
18882;DHT22;9573;50.948;11.600;2023-05-27T13:57:39;21.70;59.70
18882;DHT22;9573;50.948;11.600;2023-05-27T14:00:12;21.80;60.70
18882;DHT22;9573;50.948;11.600;2023-05-27T14:02:50;21.70;59.90
18882;DHT22;9573;50.948;11.600;2023-05-27T14:05:19;21.60;60.00
18882;DHT22;9573;50.948;11.600;2023-05-27T14:07:49;21.60;60.00
18882;DHT22;9573;50.948;11.600;2023-05-27T14:10:20;21.80;60.10
18882;DHT22;9573;50.948;11.600;2023-05-27T14:12:47;21.80;61.00
18882;DHT22;9573;50.948;11.600;2023-05-27T14:15:18;21.90;60.80
18882;DHT22;9573;50.948;11.600;2023-05-27T14:17:48;22.00;61.10
18882;DHT22;9573;50.948;11.600;2023-05-27T14:20:16;22.00;61.50
18882;DHT22;9573;50.948;11.600;2023-05-27T14:22:45;22.00;62.10
18882;DHT22;9573;50.948;11.600;2023-05-27T14:25:12;22.10;62.20
18882;DHT22;9573;50.948;11.600;2023-05-27T14:27:40;22.10;62.40
18882;DHT22;9573;50.948;11.600;2023-05-27T14:30:08;22.20;62.40
18882;DHT22;9573;50.948;11.600;2023-05-27T14:32:37;22.10;61.70
18882;DHT22;9573;50.948;11.600;2023-05-27T14:35:05;21.90;62.20
18882;DHT22;9573;50.948;11.600;2023-05-27T14:37:36;21.90;61.50
18882;DHT22;9573;50.948;11.600;2023-05-27T14:40:04;21.80;60.30
18882;DHT22;9573;50.948;11.600;2023-05-27T14:42:32;21.60;60.10
18882;DHT22;9573;50.948;11.600;2023-05-27T14:44:59;21.50;59.90
18882;DHT22;9573;50.948;11.600;2023-05-27T14:47:27;21.40;59.50
18882;DHT22;9573;50.948;11.600;2023-05-27T14:49:55;21.20;59.40
18882;DHT22;9573;50.948;11.600;2023-05-27T14:52:22;21.20;60.00
18882;DHT22;9573;50.948;11.600;2023-05-27T14:54:49;21.10;60.40
18882;DHT22;9573;50.948;11.600;2023-05-27T14:57:16;21.20;60.70
18882;DHT22;9573;50.948;11.600;2023-05-27T14:59:44;21.30;60.20
18882;DHT22;9573;50.948;11.600;2023-05-27T15:02:11;21.10;60.40
18882;DHT22;9573;50.948;11.600;2023-05-27T15:04:38;21.20;60.80
18882;DHT22;9573;50.948;11.600;2023-05-27T15:07:06;21.30;62.80
18882;DHT22;9573;50.948;11.600;2023-05-27T15:09:33;21.30;62.60
18882;DHT22;9573;50.948;11.600;2023-05-27T15:12:00;21.10;62.90
18882;DHT22;9573;50.948;11.600;2023-05-27T15:14:28;20.80;62.60
18882;DHT22;9573;50.948;11.600;2023-05-27T15:16:55;21.10;61.80
18882;DHT22;9573;50.948;11.600;2023-05-27T15:19:22;21.10;61.30
18882;DHT22;9573;50.948;11.600;2023-05-27T15:21:49;21.00;60.60
18882;DHT22;9573;50.948;11.600;2023-05-27T15:24:17;20.90;61.30
18882;DHT22;9573;50.948;11.600;2023-05-27T15:26:44;20.80;61.40
18882;DHT22;9573;50.948;11.600;2023-05-27T15:29:12;20.80;60.60
18882;DHT22;9573;50.948;11.600;2023-05-27T15:31:39;20.70;60.20
18882;DHT22;9573;50.948;11.600;2023-05-27T15:34:07;20.90;60.10
18882;DHT22;9573;50.948;11.600;2023-05-27T15:36:34;20.90;61.00
18882;DHT22;9573;50.948;11.600;2023-05-27T15:39:01;20.80;61.70
18882;DHT22;9573;50.948;11.600;2023-05-27T15:41:29;20.80;60.30